PHKO METAR and TAF weather

Enter ICAO airport designator
Station Type Date Time Source
PHKO METAR 2019/12/07 04:53 UTC NOAA

PHKO 070453Z 08004KT 10SM BKN034 OVC048 24/19 A2989 RMK AO2 SLP122 T02390194


Station Type Date Time Source
PHKO Decoded METAR 2019/12/07 04:53 UTC NOAA

KONA INTERNATIONAL AIRPORT, HI, United States (PHKO) 19-44N 156-03W 27M
Dec 06, 2019 - 11:53 PM EST / 2019.12.07 0453 UTC
Wind: from the E (080 degrees) at 5 MPH (4 KT):0
Visibility: 10 mile(s):0
Sky conditions: overcast
Temperature: 75.0 F (23.9 C)
Dew Point: 66.9 F (19.4 C)
Relative Humidity: 75%
Pressure (altimeter): 29.89 in. Hg (1012 hPa)
ob: PHKO 070453Z 08004KT 10SM BKN034 OVC048 24/19 A2989 RMK AO2 SLP122 T02390194
cycle: 5

Station Type Date Time Source
PHKO TAF 2019/12/06 18:45 UTC NOAA

TAF PHKO 061742Z 0618/0718 VRB06KT P6SM SHRA SCT030 BKN060
FM062200 20009KT P6SM VCSH SCT030 BKN045
FM070600 15006KT P6SM SCT035 SCT060

Example: see airport list